Time;durP1;ratioP1;P1;durP2;ratioP2;P2;SDS_P1;SDS_P2;PMS_P1;PMS_P2;Temp;Humidity;BMP_temperature;BMP_pressure;BME280_temperature;BME280_humidity;BME280_pressure;Samples;Min_cycle;Max_cycle;Signal;HPM_P1;HPM_P2
2022/06/01 00:01:10;;;;;;;21.25;17.55;;;12.20;97.20;;;;;;4961143;28;20360;-76
2022/06/01 00:03:41;;;;;;;21.58;18.60;;;12.20;97.30;;;;;;4995143;28;20030;-76
2022/06/01 00:06:08;;;;;;;26.73;19.90;;;12.10;97.40;;;;;;4977195;28;20030;-76
2022/06/01 00:08:34;;;;;;;23.73;20.63;;;12.10;97.50;;;;;;4994613;28;20075;-76
2022/06/01 00:11:00;;;;;;;22.58;19.63;;;12.00;97.50;;;;;;4977090;28;20459;-76
2022/06/01 00:13:27;;;;;;;23.73;19.55;;;12.00;97.60;;;;;;4993046;28;20034;-76
2022/06/01 00:15:54;;;;;;;24.00;20.75;;;11.90;97.90;;;;;;4977045;28;20034;-76
2022/06/01 00:18:22;;;;;;;21.52;18.83;;;11.90;97.70;;;;;;4960992;28;20512;-76
2022/06/01 00:20:49;;;;;;;23.75;18.85;;;11.90;97.80;;;;;;4994451;28;20032;-76
2022/06/01 00:23:14;;;;;;;22.17;19.67;;;11.90;97.80;;;;;;4977133;28;20033;-75
2022/06/01 00:25:41;;;;;;;24.27;20.42;;;11.90;97.80;;;;;;4976795;28;20121;-76
2022/06/01 00:28:07;;;;;;;21.75;18.50;;;11.90;97.90;;;;;;4976232;28;20037;-76
2022/06/01 00:30:33;;;;;;;22.85;20.40;;;11.90;97.90;;;;;;4976897;28;20529;-76
2022/06/01 00:32:59;;;;;;;24.85;21.05;;;11.90;98.00;;;;;;4976738;28;20065;-76
2022/06/01 00:35:25;;;;;;;24.45;21.20;;;11.80;98.00;;;;;;4994331;28;20058;-76
2022/06/01 00:37:51;;;;;;;22.70;20.10;;;11.80;98.10;;;;;;4976791;28;20034;-77
2022/06/01 00:40:19;;;;;;;25.52;21.13;;;11.80;98.00;;;;;;4960935;28;20037;-77
2022/06/01 00:42:47;;;;;;;26.60;21.15;;;11.90;98.10;;;;;;4976736;28;20052;-76
2022/06/01 00:45:17;;;;;;;26.10;22.75;;;11.80;98.20;;;;;;4976584;28;20019;-76
2022/06/01 00:47:42;;;;;;;25.30;21.52;;;11.80;98.30;;;;;;4993809;28;20031;-76
2022/06/01 00:50:28;;;;;;;26.05;22.63;;;11.80;98.30;;;;;;4960355;28;20470;-77
2022/06/01 00:53:08;;;;;;;27.70;22.67;;;11.80;98.30;;;;;;4993877;28;20371;-76
2022/06/01 00:55:42;;;;;;;25.30;21.92;;;11.70;98.40;;;;;;4993857;28;20040;-85
2022/06/01 00:58:13;;;;;;;26.27;22.35;;;11.70;98.50;;;;;;4992659;28;20061;-84
2022/06/01 01:00:41;;;;;;;27.27;22.65;;;11.70;98.40;;;;;;4976403;28;20467;-85
2022/06/01 01:03:10;;;;;;;23.83;21.02;;;11.80;98.50;;;;;;4976273;28;20022;-85
2022/06/01 01:05:39;;;;;;;25.10;21.67;;;11.70;98.50;;;;;;4976241;28;20023;-85
2022/06/01 01:08:06;;;;;;;25.92;19.67;;;11.70;98.60;;;;;;4993755;28;20037;-85
2022/06/01 01:10:33;;;;;;;25.55;20.60;;;11.70;98.80;;;;;;4993712;28;20042;-83
2022/06/01 01:13:01;;;;;;;25.13;21.92;;;11.70;98.60;;;;;;4976603;28;20034;-84
2022/06/01 01:15:58;;;;;;;26.98;22.38;;;11.70;98.70;;;;;;4976181;28;20052;-82
2022/06/01 01:18:35;;;;;;;25.15;21.40;;;11.70;98.90;;;;;;4993550;28;20022;-80
2022/06/01 01:21:24;;;;;;;25.48;21.48;;;11.70;98.90;;;;;;4976105;28;20101;-82
2022/06/01 01:24:04;;;;;;;29.17;25.08;;;11.70;99.00;;;;;;4993502;28;20019;-84
2022/06/01 01:26:32;;;;;;;28.95;25.40;;;11.70;99.50;;;;;;4993193;28;20430;-81
2022/06/01 01:28:58;;;;;;;27.10;22.98;;;11.70;99.50;;;;;;4993884;28;20065;-81
2022/06/01 01:31:25;;;;;;;29.85;24.90;;;11.70;99.60;;;;;;4976185;28;20069;-82
2022/06/01 01:33:54;;;;;;;26.02;23.23;;;11.60;99.70;;;;;;4993785;28;20065;-84
2022/06/01 01:36:28;;;;;;;30.35;23.52;;;11.60;99.70;;;;;;4993637;28;20034;-82
2022/06/01 01:39:01;;;;;;;28.30;22.73;;;11.60;99.70;;;;;;4993375;28;20093;-85
2022/06/01 01:41:29;;;;;;;25.75;22.48;;;11.60;99.70;;;;;;4995546;28;20069;-84
2022/06/01 01:44:18;;;;;;;25.65;21.02;;;11.60;99.70;;;;;;4995667;28;20129;-83
2022/06/01 01:46:47;;;;;;;23.55;19.52;;;11.60;99.80;;;;;;4996583;28;20039;-76
2022/06/01 01:49:40;;;;;;;26.70;21.55;;;11.60;99.90;;;;;;4979909;28;20041;-77
2022/06/01 01:52:11;;;;;;;24.13;18.42;;;11.60;99.90;;;;;;4995826;28;20046;-76
2022/06/01 01:54:56;;;;;;;22.05;17.70;;;11.60;99.80;;;;;;4979151;28;20037;-76
2022/06/01 01:57:41;;;;;;;21.05;16.27;;;11.60;99.80;;;;;;4995877;28;20026;-75
2022/06/01 02:00:09;;;;;;;;;;;11.60;99.80;;;;;;4995912;28;20038;-76
2022/06/01 02:02:44;;;;;;;19.40;13.95;;;11.70;99.80;;;;;;4995387;28;19906;-76
2022/06/01 02:08:21;;;;;;;16.65;13.18;;;11.70;99.70;;;;;;4996909;28;20053;-76
2022/06/01 02:13:32;;;;;;;17.33;13.63;;;11.70;99.70;;;;;;4997128;28;20124;-76
2022/06/01 02:16:00;;;;;;;16.77;13.85;;;11.70;99.60;;;;;;4962893;28;20078;-76
2022/06/01 02:18:39;;;;;;;19.48;14.60;;;11.70;99.60;;;;;;4995191;28;20058;-76
2022/06/01 02:21:11;;;;;;;14.80;11.60;;;11.70;99.70;;;;;;4995549;28;20022;-76
2022/06/01 02:23:39;;;;;;;16.65;11.90;;;11.70;99.70;;;;;;4996404;28;20026;-76
2022/06/01 02:26:05;;;;;;;16.27;11.68;;;11.70;99.70;;;;;;4979040;28;20104;-76
2022/06/01 02:28:31;;;;;;;13.43;10.63;;;11.60;99.70;;;;;;4995045;28;20093;-76
2022/06/01 02:30:58;;;;;;;13.27;10.13;;;11.70;99.70;;;;;;4978846;28;20030;-76
2022/06/01 02:33:28;;;;;;;13.35;9.93;;;11.80;99.70;;;;;;4995181;28;20584;-76
2022/06/01 02:35:58;;;;;;;13.50;9.15;;;11.80;99.70;;;;;;4996051;28;20105;-83
2022/06/01 02:38:31;;;;;;;11.88;9.52;;;11.80;99.60;;;;;;4994596;28;20026;-85
2022/06/01 02:40:59;;;;;;;13.77;8.98;;;11.80;99.50;;;;;;4995851;28;20022;-82
2022/06/01 02:43:26;;;;;;;12.73;9.38;;;11.80;99.50;;;;;;4994439;28;20113;-83
2022/06/01 02:45:52;;;;;;;12.75;9.38;;;11.80;99.50;;;;;;4994424;28;20486;-85
2022/06/01 02:48:18;;;;;;;11.77;8.68;;;11.80;99.50;;;;;;4978243;28;20037;-83
2022/06/01 02:50:44;;;;;;;13.20;8.70;;;11.70;99.50;;;;;;4993760;28;20616;-82
2022/06/01 02:53:10;;;;;;;12.85;8.88;;;11.70;99.50;;;;;;4994102;28;20122;-85
2022/06/01 02:55:35;;;;;;;12.38;9.77;;;11.80;99.60;;;;;;4978234;28;20077;-85
2022/06/01 02:58:02;;;;;;;13.32;10.10;;;11.80;99.60;;;;;;4978173;28;20438;-85
2022/06/01 03:00:40;;;;;;;12.43;9.23;;;11.70;99.60;;;;;;4994806;28;20086;-76
2022/06/01 03:03:08;;;;;;;12.25;8.80;;;11.70;99.60;;;;;;4975048;28;20025;-76
2022/06/01 03:05:36;;;;;;;11.63;9.38;;;11.70;99.60;;;;;;4974421;28;20475;-76
2022/06/01 03:08:03;;;;;;;10.82;8.10;;;11.80;99.60;;;;;;4975760;28;20467;-76
2022/06/01 03:10:29;;;;;;;12.18;8.90;;;11.80;99.50;;;;;;4958835;28;20031;-76
2022/06/01 03:12:55;;;;;;;12.15;8.75;;;11.70;99.50;;;;;;4974234;28;20111;-76
2022/06/01 03:15:23;;;;;;;12.60;9.15;;;11.80;99.50;;;;;;4975459;28;20025;-76
2022/06/01 03:17:49;;;;;;;11.90;8.85;;;11.70;99.50;;;;;;4974565;28;20110;-76
2022/06/01 03:20:18;;;;;;;12.70;8.50;;;11.70;99.40;;;;;;4958012;28;20027;-76
2022/06/01 03:22:45;;;;;;;11.70;8.68;;;11.70;99.40;;;;;;4974443;28;20031;-76
2022/06/01 03:25:18;;;;;;;12.02;8.65;;;11.80;99.40;;;;;;4974445;28;20418;-76
2022/06/01 03:27:44;;;;;;;11.55;8.85;;;11.70;99.40;;;;;;4974606;28;20019;-75
2022/06/01 03:30:13;;;;;;;11.77;9.35;;;11.60;99.40;;;;;;4958460;28;20399;-76
2022/06/01 03:32:38;;;;;;;11.90;9.05;;;11.60;99.30;;;;;;4974342;28;20352;-76
2022/06/01 03:35:05;;;;;;;12.57;9.55;;;11.50;99.30;;;;;;4975654;28;20078;-76
2022/06/01 03:37:31;;;;;;;14.27;10.30;;;11.60;99.30;;;;;;4958016;28;20937;-76
2022/06/01 03:39:57;;;;;;;12.65;9.57;;;11.50;99.30;;;;;;4942457;28;20050;-76
2022/06/01 03:42:23;;;;;;;12.23;8.77;;;11.50;99.40;;;;;;4957915;28;20086;-76
2022/06/01 03:47:33;;;;;;;12.32;9.57;;;11.40;99.50;;;;;;4975506;28;20086;-76
2022/06/01 03:49:58;;;;;;;12.95;9.38;;;11.50;99.60;;;;;;4974346;28;20039;-76
2022/06/01 03:52:25;;;;;;;13.77;8.95;;;11.50;99.50;;;;;;4958054;28;20043;-76
2022/06/01 03:54:51;;;;;;;12.20;8.82;;;11.50;99.50;;;;;;4958172;28;20034;-76
2022/06/01 03:57:16;;;;;;;11.75;9.57;;;11.50;99.60;;;;;;4957713;28;20475;-76
2022/06/01 03:59:42;;;;;;;12.50;9.02;;;11.50;99.60;;;;;;4957877;28;20081;-76
2022/06/01 04:02:07;;;;;;;13.02;9.90;;;11.50;99.60;;;;;;4966835;28;20468;-76
2022/06/01 04:04:34;;;;;;;14.07;10.52;;;11.40;99.50;;;;;;4944979;28;20062;-76
2022/06/01 04:06:59;;;;;;;13.60;10.23;;;11.50;99.60;;;;;;4957529;28;20077;-76
2022/06/01 04:09:26;;;;;;;14.57;11.05;;;11.40;99.60;;;;;;4957686;28;20035;-76
2022/06/01 04:11:52;;;;;;;15.13;11.02;;;11.40;99.60;;;;;;4957804;28;20030;-76
2022/06/01 04:14:21;;;;;;;14.02;11.20;;;11.40;99.70;;;;;;4958146;28;20069;-76
2022/06/01 04:16:48;;;;;;;15.82;11.63;;;11.40;99.90;;;;;;4957380;28;20038;-76
2022/06/01 04:19:13;;;;;;;14.40;11.75;;;11.40;99.80;;;;;;4957774;28;20045;-76
2022/06/01 04:21:42;;;;;;;16.42;12.90;;;11.40;99.80;;;;;;4967915;28;20402;-76
2022/06/01 04:24:12;;;;;;;16.77;12.77;;;11.40;99.80;;;;;;4971515;28;20018;-76
2022/06/01 04:26:38;;;;;;;17.50;13.20;;;11.50;99.90;;;;;;4991263;28;20081;-75
2022/06/01 04:29:04;;;;;;;20.73;15.60;;;11.40;99.80;;;;;;4976793;28;20033;-76
2022/06/01 04:31:30;;;;;;;22.05;17.10;;;11.50;99.80;;;;;;4957395;28;20039;-76
2022/06/01 04:33:55;;;;;;;22.33;17.75;;;11.40;99.90;;;;;;4956838;28;20034;-76
2022/06/01 04:36:21;;;;;;;22.30;18.67;;;11.50;99.90;;;;;;4976366;28;20394;-76
2022/06/01 04:38:47;;;;;;;25.02;17.80;;;11.50;99.90;;;;;;4976373;28;20034;-76
2022/06/01 04:41:12;;;;;;;25.52;18.90;;;11.60;99.90;;;;;;4976856;28;20026;-77
2022/06/01 04:43:38;;;;;;;29.55;21.77;;;11.50;99.90;;;;;;4976931;28;20459;-75
2022/06/01 04:46:04;;;;;;;28.65;23.50;;;11.60;99.90;;;;;;4992666;28;20034;-76
2022/06/01 04:48:29;;;;;;;31.20;23.30;;;11.60;99.90;;;;;;4994128;28;20053;-76
2022/06/01 04:50:57;;;;;;;27.50;21.52;;;11.70;99.90;;;;;;4976852;28;20117;-76
2022/06/01 04:53:23;;;;;;;29.02;24.08;;;11.70;99.90;;;;;;4976795;28;20027;-75
2022/06/01 04:55:48;;;;;;;27.85;22.08;;;11.80;99.90;;;;;;4976313;28;20505;-76
2022/06/01 04:58:14;;;;;;;27.85;22.58;;;11.80;99.90;;;;;;4976584;28;20030;-76
2022/06/01 05:00:41;;;;;;;26.80;21.92;;;11.80;99.90;;;;;;4976895;28;20023;-76
2022/06/01 05:03:07;;;;;;;29.08;23.38;;;11.90;99.90;;;;;;4976448;28;20026;-76
2022/06/01 05:05:37;;;;;;;28.52;21.85;;;11.90;99.90;;;;;;4964247;28;20030;-76
2022/06/01 05:08:05;;;;;;;27.73;21.50;;;11.90;99.90;;;;;;4941592;28;20022;-75
2022/06/01 05:10:31;;;;;;;30.02;24.42;;;11.90;99.90;;;;;;4956966;28;20038;-76
2022/06/01 05:12:57;;;;;;;28.67;22.77;;;11.90;99.90;;;;;;4973237;28;20027;-76
2022/06/01 05:15:22;;;;;;;29.13;23.30;;;11.90;99.90;;;;;;4943006;28;20119;-77
2022/06/01 05:17:48;;;;;;;27.35;21.65;;;11.80;99.90;;;;;;4976552;28;20077;-78
2022/06/01 05:20:14;;;;;;;25.45;20.35;;;11.80;99.90;;;;;;4944338;28;20214;-75
2022/06/01 05:22:40;;;;;;;28.10;22.75;;;11.80;99.90;;;;;;4960239;28;20023;-77
2022/06/01 05:25:07;;;;;;;28.20;21.90;;;11.80;99.90;;;;;;4944508;28;20517;-77
2022/06/01 05:27:33;;;;;;;26.23;20.85;;;11.80;99.90;;;;;;4978017;28;20057;-76
2022/06/01 05:29:59;;;;;;;27.05;21.42;;;11.80;99.90;;;;;;4978185;28;20035;-76
2022/06/01 05:32:25;;;;;;;26.63;20.95;;;11.80;99.90;;;;;;4970049;28;20031;-76
2022/06/01 05:34:50;;;;;;;25.65;19.85;;;11.90;99.90;;;;;;4995790;28;20089;-77
2022/06/01 05:37:16;;;;;;;21.67;17.80;;;11.90;99.90;;;;;;4979482;28;20422;-77
2022/06/01 05:39:41;;;;;;;25.83;20.30;;;11.90;99.90;;;;;;4979772;28;20113;-75
2022/06/01 05:42:08;;;;;;;29.05;20.95;;;11.90;99.90;;;;;;4979410;28;20054;-77
2022/06/01 05:44:34;;;;;;;26.65;20.13;;;11.90;99.90;;;;;;4997083;28;20057;-76
2022/06/01 05:47:01;;;;;;;25.00;19.52;;;12.00;99.90;;;;;;4995327;28;20045;-77
2022/06/01 05:49:27;;;;;;;25.98;19.83;;;11.90;99.90;;;;;;4979575;28;20027;-76
2022/06/01 05:51:53;;;;;;;22.48;17.67;;;11.90;99.90;;;;;;4979591;28;20124;-75
2022/06/01 05:54:19;;;;;;;26.60;18.25;;;11.90;99.90;;;;;;4979093;28;20098;-76
2022/06/01 05:56:46;;;;;;;21.02;16.02;;;12.00;99.90;;;;;;4995075;28;20042;-75
2022/06/01 05:59:12;;;;;;;23.30;16.67;;;11.90;99.90;;;;;;4995246;28;20053;-76
2022/06/01 06:01:39;;;;;;;24.90;17.00;;;11.90;99.90;;;;;;4996131;28;20022;-77
2022/06/01 06:04:05;;;;;;;22.42;14.80;;;11.90;99.90;;;;;;4996481;28;20026;-75
2022/06/01 06:06:31;;;;;;;19.55;15.05;;;12.00;99.90;;;;;;4970624;28;20098;-77
2022/06/01 06:09:00;;;;;;;21.95;15.88;;;12.00;99.90;;;;;;4970159;28;20030;-76
2022/06/01 06:11:28;;;;;;;22.75;14.63;;;12.00;99.90;;;;;;4978867;28;20054;-78
2022/06/01 06:13:55;;;;;;;19.05;14.15;;;12.10;99.90;;;;;;4973109;28;20034;-76
2022/06/01 06:16:21;;;;;;;18.30;15.10;;;12.00;99.90;;;;;;4963344;28;20089;-75
2022/06/01 06:18:46;;;;;;;19.40;14.70;;;12.00;99.90;;;;;;4972038;28;20035;-75
2022/06/01 06:21:12;;;;;;;16.70;13.82;;;12.10;99.90;;;;;;4959137;28;20475;-75
2022/06/01 06:23:38;;;;;;;20.40;14.85;;;12.10;99.90;;;;;;4976022;28;20046;-77
2022/06/01 06:26:05;;;;;;;19.17;16.52;;;12.10;99.90;;;;;;4959125;28;20030;-77
2022/06/01 06:28:31;;;;;;;21.50;16.48;;;12.10;99.90;;;;;;4959208;28;20099;-75
2022/06/01 06:30:57;;;;;;;23.02;14.82;;;12.20;99.90;;;;;;4974973;28;20050;-78
2022/06/01 06:33:23;;;;;;;21.30;15.30;;;12.20;99.90;;;;;;4975456;28;20018;-78
2022/06/01 06:36:04;;;;;;;19.95;16.35;;;12.20;99.90;;;;;;4959779;28;20033;-79
2022/06/01 06:38:31;;;;;;;19.90;15.52;;;12.20;99.90;;;;;;4958941;28;20445;-80
2022/06/01 06:40:59;;;;;;;23.52;16.42;;;12.30;99.90;;;;;;4974839;28;20022;-80
2022/06/01 06:43:26;;;;;;;16.08;13.20;;;12.40;99.90;;;;;;4959073;28;20511;-82
2022/06/01 06:45:56;;;;;;;17.17;13.07;;;12.30;99.90;;;;;;4985837;28;20033;-83
2022/06/01 06:48:22;;;;;;;18.80;14.40;;;12.40;99.90;;;;;;4975353;28;20015;-83
2022/06/01 06:50:48;;;;;;;15.32;13.13;;;12.50;99.90;;;;;;4969891;28;20038;-80
2022/06/01 06:53:13;;;;;;;15.23;11.05;;;12.50;99.90;;;;;;4951447;28;20031;-82
2022/06/01 06:55:39;;;;;;;15.60;11.98;;;12.50;99.90;;;;;;4958885;28;20059;-84
2022/06/01 06:58:09;;;;;;;14.50;11.30;;;12.70;99.90;;;;;;4976680;28;20035;-81
2022/06/01 07:00:35;;;;;;;15.20;11.13;;;12.70;99.90;;;;;;4985542;28;20023;-80
2022/06/01 07:03:01;;;;;;;13.85;9.95;;;12.80;99.70;;;;;;4977663;28;20022;-82
2022/06/01 07:08:11;;;;;;;13.50;9.52;;;12.90;99.20;;;;;;4995441;28;20498;-82
2022/06/01 07:10:36;;;;;;;12.85;9.27;;;13.00;99.10;;;;;;4977869;28;20042;-82
2022/06/01 07:13:02;;;;;;;14.48;9.35;;;13.10;99.00;;;;;;4994070;28;20501;-81
2022/06/01 07:15:27;;;;;;;12.57;9.52;;;13.20;98.90;;;;;;4993993;28;20030;-83
2022/06/01 07:17:53;;;;;;;11.80;9.07;;;13.30;98.90;;;;;;4971344;28;20062;-84
2022/06/01 07:20:19;;;;;;;10.93;7.35;;;13.40;99.00;;;;;;4956140;28;20059;-84
2022/06/01 07:22:44;;;;;;;11.98;8.85;;;13.50;98.80;;;;;;4977594;28;20558;-81
2022/06/01 07:25:11;;;;;;;9.85;7.15;;;13.60;98.80;;;;;;4995039;28;20101;-81
2022/06/01 07:27:36;;;;;;;10.32;7.28;;;13.70;98.60;;;;;;4977616;28;20081;-81
2022/06/01 07:30:06;;;;;;;9.32;6.15;;;13.70;98.60;;;;;;4993719;28;20471;-85
2022/06/01 07:32:32;;;;;;;8.65;6.22;;;13.80;98.20;;;;;;4995320;28;20058;-81
2022/06/01 07:34:58;;;;;;;8.68;6.28;;;13.90;97.80;;;;;;4994788;28;20088;-80
2022/06/01 07:43:07;;;;;;;9.02;4.50;;;14.10;95.60;;;;;;4994783;28;19924;-87
2022/06/01 07:45:38;;;;;;;11.13;4.57;;;14.10;95.10;;;;;;4979536;28;20058;-82
2022/06/01 07:48:06;;;;;;;6.82;3.95;;;14.10;95.10;;;;;;4993378;28;20497;-79
2022/06/01 07:50:33;;;;;;;5.93;3.35;;;14.20;94.80;;;;;;4994610;28;20045;-80
2022/06/01 07:52:59;;;;;;;5.55;3.42;;;14.20;94.60;;;;;;4993874;28;20026;-76
2022/06/01 07:55:26;;;;;;;7.75;4.18;;;14.30;94.50;;;;;;4977558;28;20041;-77
2022/06/01 07:57:51;;;;;;;7.20;4.55;;;14.30;94.50;;;;;;4994660;28;20030;-75
2022/06/01 08:00:18;;;;;;;6.97;4.60;;;14.40;94.30;;;;;;4960830;28;20085;-76
2022/06/01 08:02:43;;;;;;;6.35;3.85;;;14.50;94.20;;;;;;4977205;28;20470;-76
2022/06/01 08:05:11;;;;;;;6.35;3.47;;;14.50;92.70;;;;;;4977339;28;20026;-77
2022/06/01 08:07:37;;;;;;;6.72;3.85;;;14.50;92.40;;;;;;4977141;28;20151;-79
2022/06/01 08:10:04;;;;;;;7.80;4.68;;;14.50;92.20;;;;;;4977464;28;20124;-77
2022/06/01 08:15:13;;;;;;;8.43;3.75;;;14.60;92.40;;;;;;4980035;28;20046;-77
2022/06/01 08:17:41;;;;;;;7.65;3.97;;;14.70;92.00;;;;;;4977037;28;20390;-76
2022/06/01 08:20:08;;;;;;;6.95;3.55;;;14.70;92.10;;;;;;4977280;28;20131;-76
2022/06/01 08:22:33;;;;;;;3.85;2.60;;;14.80;92.10;;;;;;4976186;28;20398;-78
2022/06/01 08:24:59;;;;;;;6.40;3.78;;;14.90;91.90;;;;;;4973962;28;20022;-76
2022/06/01 08:27:25;;;;;;;6.68;3.90;;;14.90;91.60;;;;;;4976439;28;20078;-78
2022/06/01 08:29:50;;;;;;;6.22;3.70;;;14.90;91.50;;;;;;4976829;28;20042;-75
2022/06/01 08:32:16;;;;;;;6.00;2.75;;;15.00;91.50;;;;;;4977084;28;20042;-77
2022/06/01 08:34:42;;;;;;;6.88;3.80;;;15.10;91.60;;;;;;4976673;28;20487;-77
2022/06/01 08:37:07;;;;;;;6.00;3.08;;;15.20;91.20;;;;;;4976586;28;20077;-79
2022/06/01 08:39:33;;;;;;;5.32;2.92;;;15.30;91.00;;;;;;4976619;28;20050;-76
2022/06/01 08:42:01;;;;;;;4.50;2.75;;;15.30;90.90;;;;;;4971894;28;20443;-77
2022/06/01 08:44:37;;;;;;;4.03;2.15;;;15.40;90.40;;;;;;4972935;28;20107;-75
2022/06/01 08:47:09;;;;;;;9.32;3.08;;;15.40;89.70;;;;;;4973973;28;20023;-75
2022/06/01 08:49:36;;;;;;;5.70;2.75;;;15.40;88.70;;;;;;4974500;28;20027;-76
2022/06/01 08:52:03;;;;;;;5.03;2.33;;;15.50;87.60;;;;;;4961313;28;20046;-75
2022/06/01 08:54:29;;;;;;;4.53;2.42;;;15.50;88.00;;;;;;4978824;28;20085;-76
2022/06/01 08:57:12;;;;;;;4.93;2.80;;;15.70;88.30;;;;;;4961188;28;20034;-75
2022/06/01 09:00:03;;;;;;;3.40;1.95;;;15.70;88.00;;;;;;4978491;28;20027;-75
2022/06/01 09:02:37;;;;;;;5.28;1.83;;;15.90;86.90;;;;;;4960669;28;20026;-77
2022/06/01 09:05:22;;;;;;;3.05;1.33;;;16.00;85.70;;;;;;4988147;28;20034;-75
2022/06/01 09:07:54;;;;;;;4.40;2.58;;;16.10;84.80;;;;;;4976907;28;20169;-77
2022/06/01 09:10:57;;;;;;;3.80;1.58;;;16.20;83.30;;;;;;4976959;28;20023;-76
2022/06/01 09:13:31;;;;;;;3.92;1.88;;;16.40;82.70;;;;;;4978292;28;20035;-75
2022/06/01 09:16:06;;;;;;;5.82;2.08;;;16.40;82.50;;;;;;4960936;28;20054;-75
2022/06/01 09:18:50;;;;;;;6.10;2.30;;;16.50;82.20;;;;;;4985141;28;20044;-75
2022/06/01 09:24:21;;;;;;;3.92;1.90;;;16.50;82.20;;;;;;4996849;28;20057;-77
2022/06/01 09:27:02;;;;;;;5.63;2.38;;;16.50;80.40;;;;;;4995894;28;20033;-77
2022/06/01 09:29:34;;;;;;;6.63;2.60;;;16.50;80.40;;;;;;4981777;28;20034;-75
2022/06/01 09:32:21;;;;;;;7.18;3.55;;;16.50;80.20;;;;;;4960461;28;20030;-76
2022/06/01 09:34:48;;;;;;;6.35;3.30;;;16.60;80.20;;;;;;4990421;28;20030;-75
2022/06/01 09:37:22;;;;;;;5.78;3.60;;;16.70;80.40;;;;;;4995828;28;20116;-73
2022/06/01 09:39:53;;;;;;;4.03;3.13;;;16.80;79.60;;;;;;4979688;28;20062;-75
2022/06/01 09:42:25;;;;;;;5.07;2.67;;;16.90;78.60;;;;;;4995617;28;20054;-77
2022/06/01 09:44:54;;;;;;;5.90;3.60;;;16.80;77.20;;;;;;4996981;28;20097;-75
2022/06/01 09:47:35;;;;;;;6.10;3.78;;;16.80;76.90;;;;;;4997256;28;20463;-77
2022/06/01 09:50:03;;;;;;;5.80;3.38;;;16.70;77.20;;;;;;4995938;28;20030;-81
2022/06/01 09:52:39;;;;;;;7.03;4.38;;;16.50;77.90;;;;;;4979672;28;20097;-79
2022/06/01 09:55:15;;;;;;;12.50;4.45;;;16.30;80.50;;;;;;4995452;28;20030;-81
2022/06/01 09:57:42;;;;;;;6.60;4.50;;;16.00;85.00;;;;;;4976029;28;20394;-80
2022/06/01 10:06:25;;;;;;;4.55;2.30;;;15.40;88.10;;;;;;4980444;28;20077;-85
2022/06/01 10:09:14;;;;;;;3.53;2.05;;;15.30;88.20;;;;;;4978792;28;20023;-83
2022/06/01 10:11:46;;;;;;;3.15;1.35;;;15.40;87.90;;;;;;4974290;28;20026;-81
2022/06/01 10:14:31;;;;;;;3.65;1.20;;;15.50;86.70;;;;;;4978757;28;20483;-84
2022/06/01 10:17:03;;;;;;;2.75;1.40;;;15.60;85.60;;;;;;4983698;28;20027;-82
2022/06/01 10:19:54;;;;;;;4.28;2.70;;;15.70;84.60;;;;;;4973068;28;20023;-84
2022/06/01 10:22:32;;;;;;;7.07;3.40;;;15.90;83.00;;;;;;4964104;28;20561;-82
2022/06/01 10:25:14;;;;;;;5.95;3.20;;;16.00;83.00;;;;;;4985625;28;20019;-79
2022/06/01 10:28:06;;;;;;;4.65;2.20;;;16.20;82.40;;;;;;4975971;28;20033;-80
2022/06/01 10:30:37;;;;;;;4.68;1.77;;;16.30;81.60;;;;;;4979315;28;20073;-79
2022/06/01 10:33:29;;;;;;;3.28;1.48;;;16.40;81.10;;;;;;4968055;28;20035;-80
2022/06/01 10:36:07;;;;;;;4.15;2.10;;;16.60;80.70;;;;;;4970455;28;20162;-78
2022/06/01 10:39:08;;;;;;;4.55;2.08;;;16.80;80.20;;;;;;4972118;28;20027;-81
2022/06/01 10:41:46;;;;;;;4.68;1.98;;;16.80;78.90;;;;;;4967787;28;20043;-81
2022/06/01 10:44:30;;;;;;;3.55;2.10;;;16.70;78.10;;;;;;4971617;28;20031;-80
2022/06/01 10:47:03;;;;;;;4.90;2.58;;;16.60;76.50;;;;;;4959813;28;20026;-79
2022/06/01 10:49:41;;;;;;;5.97;2.65;;;16.50;77.20;;;;;;4980506;28;20387;-78
2022/06/01 10:52:22;;;;;;;5.45;3.25;;;16.40;78.50;;;;;;4976890;28;20105;-80
2022/06/01 10:55:15;;;;;;;7.57;2.72;;;16.30;79.20;;;;;;4971349;28;20023;-82
2022/06/01 10:57:44;;;;;;;4.13;1.67;;;16.30;79.90;;;;;;4987376;28;20113;-81
2022/06/01 11:00:18;;;;;;;5.78;2.80;;;16.10;80.00;;;;;;4984753;28;20025;-82
2022/06/01 11:03:20;;;;;;;4.68;2.28;;;16.00;79.80;;;;;;4987160;28;20019;-81
2022/06/01 11:05:59;;;;;;;7.90;2.67;;;15.90;80.10;;;;;;4979606;28;20027;-81
2022/06/01 11:08:57;;;;;;;2.88;1.25;;;15.90;80.80;;;;;;4983032;28;20051;-85
2022/06/01 11:11:45;;;;;;;2.03;0.90;;;16.00;80.60;;;;;;4979331;28;20030;-83
2022/06/01 11:14:35;;;;;;;1.75;0.60;;;16.40;80.60;;;;;;4973066;28;20503;-80
2022/06/01 11:17:12;;;;;;;1.02;0.47;;;16.60;77.00;;;;;;4968363;28;20092;-86
2022/06/01 11:20:14;;;;;;;1.00;0.40;;;16.70;77.30;;;;;;4981698;28;20019;-87
2022/06/01 11:22:48;;;;;;;1.05;0.40;;;16.60;75.60;;;;;;4951179;28;20031;-86
2022/06/01 11:25:39;;;;;;;5.45;0.73;;;16.50;75.10;;;;;;4975825;28;20077;-82
2022/06/01 11:28:22;;;;;;;2.58;0.88;;;16.30;75.20;;;;;;4966492;28;20026;-85
2022/06/01 11:30:53;;;;;;;3.50;1.50;;;16.20;76.60;;;;;;4980183;28;20383;-85
2022/06/01 11:33:36;;;;;;;2.78;1.38;;;16.20;77.70;;;;;;4974971;28;20023;-81
2022/06/01 11:36:40;;;;;;;3.80;2.05;;;16.30;79.10;;;;;;4990546;28;20505;-83
2022/06/01 11:39:28;;;;;;;5.00;2.25;;;16.80;80.90;;;;;;4980477;28;20517;-83
2022/06/01 11:42:21;;;;;;;6.22;2.30;;;17.10;80.80;;;;;;4984350;28;20045;-87
2022/06/01 11:45:03;;;;;;;5.15;2.08;;;17.30;81.00;;;;;;4977666;28;20065;-81
2022/06/01 11:47:36;;;;;;;3.33;2.00;;;17.70;82.00;;;;;;4981308;28;20034;-85
2022/06/01 11:50:25;;;;;;;3.37;1.70;;;18.40;83.70;;;;;;4992775;28;20092;-85
2022/06/01 11:52:56;;;;;;;3.72;1.40;;;19.40;83.50;;;;;;4959262;28;20435;-82
2022/06/01 11:55:28;;;;;;;3.53;1.65;;;20.10;81.00;;;;;;4977326;28;20031;-83
2022/06/01 11:58:02;;;;;;;4.15;1.50;;;20.40;79.80;;;;;;4967339;28;20022;-81
2022/06/01 12:00:42;;;;;;;4.68;1.55;;;20.30;78.60;;;;;;4974836;28;20034;-83
2022/06/01 12:03:19;;;;;;;3.15;1.40;;;20.30;78.50;;;;;;4980181;28;20387;-85
2022/06/01 12:05:57;;;;;;;4.82;1.50;;;20.10;77.90;;;;;;4977704;28;20489;-84
2022/06/01 12:08:30;;;;;;;2.85;1.65;;;20.10;77.60;;;;;;4985563;28;20494;-81
2022/06/01 12:11:03;;;;;;;2.80;1.80;;;20.10;77.20;;;;;;4965359;28;20045;-80
2022/06/01 12:13:49;;;;;;;3.28;2.17;;;20.00;76.80;;;;;;4979042;28;20019;-82
2022/06/01 12:16:25;;;;;;;3.00;1.95;;;20.00;77.00;;;;;;4966925;28;20530;-81
2022/06/01 12:19:02;;;;;;;2.28;1.27;;;20.00;76.20;;;;;;4974481;28;20031;-81
2022/06/01 12:21:36;;;;;;;4.35;0.90;;;20.00;75.80;;;;;;4974871;28;20015;-82
2022/06/01 12:30:15;;;;;;;;;;;20.50;71.80;;;;;;4967934;28;20049;-81
2022/06/01 12:32:59;;;;;;;1.15;0.30;;;20.70;70.50;;;;;;4975791;28;20309;-80
2022/06/01 12:35:30;;;;;;;0.70;0.30;;;20.90;69.20;;;;;;4957577;28;20125;-80
2022/06/01 12:38:08;;;;;;;1.80;0.40;;;21.20;68.70;;;;;;4974591;28;20027;-80
2022/06/01 12:40:34;;;;;;;1.65;0.38;;;21.40;66.20;;;;;;4988199;28;20430;-81
2022/06/01 12:43:02;;;;;;;0.32;0.10;;;21.50;65.50;;;;;;4984368;28;20050;-82
2022/06/01 12:45:40;;;;;;;1.23;0.20;;;21.70;63.60;;;;;;4974529;28;20035;-86
2022/06/01 12:48:19;;;;;;;1.95;0.20;;;21.70;60.70;;;;;;4987437;28;20019;-84
2022/06/01 12:50:59;;;;;;;2.25;0.30;;;21.80;59.50;;;;;;4960184;28;20123;-80
2022/06/01 12:53:40;;;;;;;0.77;0.20;;;22.00;58.50;;;;;;4968420;28;20454;-81
2022/06/01 12:56:18;;;;;;;2.05;0.20;;;22.00;56.80;;;;;;4970738;28;20387;-81
2022/06/01 12:58:45;;;;;;;0.90;0.20;;;22.00;56.60;;;;;;4976440;28;20113;-86
2022/06/01 13:01:11;;;;;;;0.63;0.30;;;22.00;57.00;;;;;;4976353;28;20545;-85
2022/06/01 13:03:49;;;;;;;0.45;0.22;;;22.10;56.50;;;;;;4963597;28;20030;-81
2022/06/01 13:06:19;;;;;;;0.45;0.30;;;22.10;56.00;;;;;;4962827;28;20046;-84
2022/06/01 13:08:56;;;;;;;0.40;0.20;;;22.10;56.00;;;;;;4982409;28;20026;-82
2022/06/01 13:11:26;;;;;;;0.73;0.30;;;22.10;55.80;;;;;;4968938;28;20030;-83
2022/06/01 13:13:51;;;;;;;0.93;0.28;;;22.10;55.30;;;;;;4968801;28;20023;-77
2022/06/01 13:16:20;;;;;;;0.50;0.20;;;22.20;55.20;;;;;;4963275;28;20034;-76
2022/06/01 13:18:46;;;;;;;1.70;0.22;;;22.20;54.60;;;;;;4986068;28;20034;-76
2022/06/01 13:21:38;;;;;;;0.22;0.10;;;22.40;54.80;;;;;;4983993;28;20050;-76
2022/06/01 13:24:09;;;;;;;0.52;0.20;;;22.60;54.60;;;;;;4967767;28;20035;-78
2022/06/01 13:26:50;;;;;;;1.25;0.30;;;22.70;54.30;;;;;;4977224;28;20030;-74
2022/06/01 13:29:33;;;;;;;0.82;0.30;;;22.80;53.80;;;;;;4980808;28;20029;-77
2022/06/01 13:32:10;;;;;;;2.33;0.30;;;22.80;54.20;;;;;;4979126;28;20030;-75
2022/06/01 13:34:50;;;;;;;0.70;0.30;;;22.90;54.10;;;;;;4945415;28;20443;-76